Time;durP1;ratioP1;P1;durP2;ratioP2;P2;SDS_P1;SDS_P2;PMS_P1;PMS_P2;Temp;Humidity;BMP_temperature;BMP_pressure;BME280_temperature;BME280_humidity;BME280_pressure;Samples;Min_cycle;Max_cycle;Signal;HPM_P1;HPM_P2
2022/06/07 00:02:14;;;;;;;1.37;1.27;;;20.80;47.20;;;;;;4979605;28;20484;-56
2022/06/07 00:04:40;;;;;;;1.50;1.40;;;20.80;47.20;;;;;;4978366;28;20451;-55
2022/06/07 00:07:08;;;;;;;1.33;1.23;;;20.80;47.20;;;;;;4983929;28;20474;-55
2022/06/07 00:09:34;;;;;;;1.80;1.40;;;20.80;47.20;;;;;;4979762;28;20228;-55
2022/06/07 00:12:00;;;;;;;1.50;1.40;;;20.80;47.20;;;;;;4981599;28;20470;-55
2022/06/07 00:14:26;;;;;;;1.40;1.30;;;20.80;47.20;;;;;;4980378;28;20533;-55
2022/06/07 00:16:54;;;;;;;1.40;1.30;;;20.80;47.20;;;;;;4985232;28;21018;-56
2022/06/07 00:19:20;;;;;;;1.50;1.40;;;20.80;47.20;;;;;;4980980;28;20466;-55
2022/06/07 00:21:46;;;;;;;1.33;1.23;;;20.80;47.20;;;;;;4979048;28;20455;-55
2022/06/07 00:24:13;;;;;;;1.40;1.30;;;20.80;47.20;;;;;;4981328;28;20458;-55
2022/06/07 00:26:38;;;;;;;1.57;1.47;;;20.80;47.20;;;;;;5001930;28;20600;-55
2022/06/07 00:29:06;;;;;;;1.47;1.37;;;20.80;47.20;;;;;;4981302;28;20722;-56
2022/06/07 00:31:33;;;;;;;1.47;1.37;;;20.80;47.20;;;;;;4980961;28;20684;-55
2022/06/07 00:33:59;;;;;;;1.40;1.30;;;20.80;47.30;;;;;;4979353;28;20444;-55
2022/06/07 00:36:24;;;;;;;1.37;1.27;;;20.80;47.20;;;;;;4979107;28;20450;-55
2022/06/07 00:38:50;;;;;;;1.43;1.33;;;20.80;47.20;;;;;;4980543;28;20233;-55
2022/06/07 00:41:16;;;;;;;2.83;2.07;;;20.80;47.20;;;;;;4983589;28;20248;-55
2022/06/07 00:44:02;;;;;;;1.40;1.30;;;20.80;47.20;;;;;;4980487;28;20693;-55
2022/06/07 00:46:27;;;;;;;1.50;1.40;;;20.80;47.20;;;;;;4984094;28;20235;-56
2022/06/07 00:48:53;;;;;;;1.77;1.67;;;20.80;47.20;;;;;;4997679;28;20855;-55
2022/06/07 00:51:19;;;;;;;1.63;1.53;;;20.80;47.20;;;;;;4998132;28;20224;-55
2022/06/07 00:53:45;;;;;;;1.30;1.20;;;20.80;47.30;;;;;;4982815;28;20552;-55
2022/06/07 00:56:10;;;;;;;1.60;1.50;;;20.80;47.20;;;;;;4986203;28;20228;-55
2022/06/07 00:58:36;;;;;;;1.60;1.50;;;20.80;47.30;;;;;;4984121;28;20749;-55
2022/06/07 01:01:03;;;;;;;1.60;1.50;;;20.80;47.30;;;;;;4984392;28;20220;-55
2022/06/07 01:03:29;;;;;;;1.50;1.40;;;20.80;47.20;;;;;;4982312;28;20216;-55
2022/06/07 01:05:54;;;;;;;1.50;1.40;;;20.80;47.30;;;;;;4982531;28;20443;-55
2022/06/07 01:11:05;;;;;;;1.70;1.60;;;20.80;47.30;;;;;;4984877;28;20236;-56
2022/06/07 01:13:33;;;;;;;1.60;1.50;;;20.80;47.30;;;;;;4982637;28;20451;-56
2022/06/07 01:16:03;;;;;;;1.40;1.30;;;20.80;47.20;;;;;;4980860;28;20454;-55
2022/06/07 01:18:31;;;;;;;1.40;1.30;;;20.80;47.30;;;;;;4983217;28;20534;-55
2022/06/07 01:21:10;;;;;;;1.60;1.50;;;20.80;47.30;;;;;;4981783;28;20512;-55
2022/06/07 01:23:36;;;;;;;1.40;1.30;;;20.80;47.20;;;;;;4980951;28;20443;-55
2022/06/07 01:26:02;;;;;;;1.47;1.37;;;20.80;47.30;;;;;;4980368;28;20470;-56
2022/06/07 01:28:27;;;;;;;1.40;1.30;;;20.80;47.20;;;;;;4978719;28;20322;-55
2022/06/07 01:30:57;;;;;;;1.40;1.30;;;20.80;48.00;;;;;;4984364;28;20220;-55
2022/06/07 01:33:22;;;;;;;1.60;1.50;;;20.80;47.20;;;;;;4979515;28;20654;-55
2022/06/07 01:35:49;;;;;;;2.33;1.33;;;20.80;47.20;;;;;;4979331;28;20982;-56
2022/06/07 01:38:14;;;;;;;1.60;1.50;;;20.80;47.20;;;;;;4994777;28;20232;-55
2022/06/07 01:43:24;;;;;;;1.50;1.40;;;20.80;47.20;;;;;;4979119;28;20312;-55
2022/06/07 01:45:49;;;;;;;1.70;1.60;;;20.80;47.20;;;;;;4981894;28;20463;-55
2022/06/07 01:48:15;;;;;;;1.40;1.30;;;20.80;47.20;;;;;;4982142;28;20682;-56
2022/06/07 01:50:40;;;;;;;1.50;1.40;;;20.80;47.20;;;;;;4981592;28;20283;-56
2022/06/07 01:53:06;;;;;;;1.50;1.40;;;20.80;47.20;;;;;;4986410;28;20223;-55
2022/06/07 01:55:32;;;;;;;1.60;1.50;;;20.80;47.20;;;;;;4981913;28;20749;-56
2022/06/07 01:57:57;;;;;;;1.37;1.27;;;20.80;47.20;;;;;;4983689;28;20247;-55
2022/06/07 02:00:23;;;;;;;1.60;1.50;;;20.80;47.20;;;;;;4982908;28;20278;-56
2022/06/07 02:02:49;;;;;;;1.50;1.40;;;20.80;47.30;;;;;;4985034;28;20319;-55
2022/06/07 02:05:15;;;;;;;1.57;1.47;;;20.80;47.20;;;;;;4983537;28;20221;-55
2022/06/07 02:07:41;;;;;;;1.40;1.30;;;20.80;47.30;;;;;;4978770;28;20432;-56
2022/06/07 02:10:07;;;;;;;1.40;1.30;;;20.80;47.20;;;;;;4981767;28;20466;-56
2022/06/07 02:12:33;;;;;;;1.50;1.40;;;20.80;47.20;;;;;;4984901;28;20315;-55
2022/06/07 02:15:00;;;;;;;1.40;1.30;;;20.80;47.20;;;;;;4979429;28;20535;-55
2022/06/07 02:17:26;;;;;;;1.30;1.20;;;20.80;47.20;;;;;;4981210;28;20224;-57
2022/06/07 02:19:52;;;;;;;1.40;1.30;;;20.80;47.30;;;;;;4984439;28;20437;-56
2022/06/07 02:22:17;;;;;;;1.40;1.30;;;20.80;47.20;;;;;;4985912;28;20541;-56
2022/06/07 02:24:43;;;;;;;1.40;1.30;;;20.80;47.20;;;;;;4987112;28;20244;-56
2022/06/07 02:27:16;;;;;;;1.47;1.37;;;20.80;47.20;;;;;;4987356;28;20689;-55
2022/06/07 02:29:47;;;;;;;1.47;1.37;;;20.80;47.20;;;;;;4984841;28;20232;-55
2022/06/07 02:32:24;;;;;;;1.50;1.40;;;20.80;47.30;;;;;;4987851;28;20450;-55
2022/06/07 02:34:53;;;;;;;1.57;1.47;;;20.80;47.20;;;;;;4982277;28;20508;-55
2022/06/07 02:37:20;;;;;;;1.40;1.30;;;20.70;47.20;;;;;;4981828;28;20459;-55
2022/06/07 02:39:46;;;;;;;1.57;1.47;;;20.70;47.10;;;;;;4986843;28;20432;-55
2022/06/07 02:42:14;;;;;;;1.40;1.30;;;20.80;47.30;;;;;;4986265;28;20469;-55
2022/06/07 02:44:40;;;;;;;1.60;1.50;;;20.80;47.30;;;;;;4985781;28;20220;-55
2022/06/07 02:47:06;;;;;;;1.30;1.20;;;20.80;47.20;;;;;;4987485;28;20466;-56
2022/06/07 02:49:32;;;;;;;1.30;1.20;;;20.80;47.20;;;;;;4982200;28;20433;-56
2022/06/07 02:51:58;;;;;;;1.47;1.37;;;20.80;47.20;;;;;;4984301;28;20470;-55
2022/06/07 02:54:23;;;;;;;1.60;1.50;;;20.70;47.10;;;;;;4984324;28;20669;-55
2022/06/07 02:56:49;;;;;;;1.50;1.40;;;20.80;47.20;;;;;;4984613;28;20316;-56
2022/06/07 02:59:14;;;;;;;1.60;1.50;;;20.70;47.10;;;;;;4985801;28;20247;-56
2022/06/07 03:01:40;;;;;;;1.60;1.50;;;20.70;47.20;;;;;;4982435;28;20224;-55
2022/06/07 03:04:05;;;;;;;1.30;1.20;;;20.70;47.10;;;;;;4982688;28;20697;-55
2022/06/07 03:06:31;;;;;;;1.53;1.43;;;20.80;47.30;;;;;;4983381;28;20221;-55
2022/06/07 03:08:57;;;;;;;1.43;1.33;;;20.70;47.20;;;;;;4982178;28;20316;-55
2022/06/07 03:11:22;;;;;;;1.40;1.30;;;20.70;47.10;;;;;;4981383;28;20247;-55
2022/06/07 03:13:48;;;;;;;1.30;1.20;;;20.70;47.20;;;;;;4982836;28;20237;-55
2022/06/07 03:16:15;;;;;;;1.27;1.20;;;20.80;47.20;;;;;;4983251;28;20765;-56
2022/06/07 03:18:40;;;;;;;1.40;1.30;;;20.70;47.20;;;;;;4981184;28;20299;-55
2022/06/07 03:21:06;;;;;;;1.43;1.33;;;20.70;47.20;;;;;;4978346;28;20959;-55
2022/06/07 03:23:32;;;;;;;1.50;1.40;;;20.80;47.30;;;;;;4981954;28;20215;-56
2022/06/07 03:26:09;;;;;;;1.40;1.30;;;20.70;47.20;;;;;;4982489;28;20796;-56
2022/06/07 03:28:35;;;;;;;1.40;1.30;;;20.70;47.10;;;;;;4982978;28;20237;-55
2022/06/07 03:31:14;;;;;;;1.40;1.30;;;20.80;47.20;;;;;;4996264;28;20460;-54
2022/06/07 03:33:41;;;;;;;1.50;1.40;;;20.80;47.20;;;;;;4983829;28;20270;-55
2022/06/07 03:36:16;;;;;;;1.70;1.60;;;20.70;47.20;;;;;;4978912;28;20866;-56
2022/06/07 03:38:43;;;;;;;1.40;1.30;;;20.70;47.20;;;;;;4981159;28;21168;-55
2022/06/07 03:41:14;;;;;;;1.40;1.30;;;20.70;47.20;;;;;;4983163;28;20524;-55
2022/06/07 03:43:39;;;;;;;1.40;1.30;;;20.70;47.20;;;;;;4983096;28;20457;-55
2022/06/07 03:46:07;;;;;;;1.37;1.27;;;20.70;47.20;;;;;;4984765;28;20474;-55
2022/06/07 03:48:32;;;;;;;1.50;1.40;;;20.70;47.20;;;;;;4983010;28;20229;-55
2022/06/07 03:50:58;;;;;;;1.40;1.30;;;20.70;47.10;;;;;;4982361;28;20564;-55
2022/06/07 03:53:24;;;;;;;1.30;1.20;;;20.80;47.20;;;;;;4985009;28;20223;-55
2022/06/07 03:55:53;;;;;;;1.40;1.30;;;20.70;47.10;;;;;;4981012;28;20224;-55
2022/06/07 03:58:19;;;;;;;1.47;1.37;;;20.80;47.60;;;;;;4985904;28;20264;-55
2022/06/07 04:00:45;;;;;;;1.27;1.17;;;20.70;47.20;;;;;;4982345;28;20483;-55
2022/06/07 04:03:11;;;;;;;1.60;1.50;;;20.70;47.10;;;;;;4978167;28;20702;-55
2022/06/07 04:05:44;;;;;;;1.40;1.30;;;20.70;47.10;;;;;;4982456;28;20602;-55
2022/06/07 04:08:13;;;;;;;1.40;1.30;;;20.70;47.10;;;;;;4982260;28;20987;-56
2022/06/07 04:10:49;;;;;;;1.40;1.30;;;20.70;47.20;;;;;;4997279;28;20513;-57
2022/06/07 04:13:17;;;;;;;1.40;1.30;;;20.70;47.90;;;;;;4981633;28;20739;-57
2022/06/07 04:15:43;;;;;;;1.50;1.40;;;20.80;47.20;;;;;;4981908;28;20462;-58
2022/06/07 04:18:09;;;;;;;1.40;1.30;;;20.80;47.10;;;;;;4982467;28;20824;-58
2022/06/07 04:20:35;;;;;;;1.50;1.40;;;20.80;47.10;;;;;;4979997;28;20803;-56
2022/06/07 04:23:01;;;;;;;1.60;1.50;;;20.80;47.00;;;;;;4982549;28;20454;-57
2022/06/07 04:25:27;;;;;;;1.40;1.30;;;20.90;47.00;;;;;;4985670;28;20816;-56
2022/06/07 04:27:54;;;;;;;1.60;1.50;;;20.90;46.90;;;;;;4982528;28;20298;-56
2022/06/07 04:30:20;;;;;;;1.40;1.30;;;20.90;46.90;;;;;;4980655;28;20469;-56
2022/06/07 04:32:49;;;;;;;1.57;1.47;;;20.90;46.80;;;;;;4982977;28;22845;-56
2022/06/07 04:35:17;;;;;;;1.60;1.10;;;20.90;46.80;;;;;;4987378;28;20518;-56
2022/06/07 04:37:47;;;;;;;1.47;1.17;;;20.90;46.70;;;;;;4981289;28;20529;-56
2022/06/07 04:40:14;;;;;;;1.37;1.27;;;20.90;46.50;;;;;;4980788;28;20459;-56
2022/06/07 04:42:39;;;;;;;1.23;1.13;;;20.90;46.50;;;;;;4979407;28;20453;-57
2022/06/07 04:45:09;;;;;;;1.20;1.10;;;21.00;46.60;;;;;;4982642;28;20805;-57
2022/06/07 04:47:36;;;;;;;1.30;1.20;;;21.00;46.50;;;;;;4978507;28;20236;-56
2022/06/07 04:50:02;;;;;;;1.30;1.20;;;21.00;46.50;;;;;;4979822;28;20960;-56
2022/06/07 04:52:28;;;;;;;1.60;1.50;;;21.00;46.60;;;;;;4984557;28;20533;-57
2022/06/07 04:54:54;;;;;;;1.37;1.27;;;21.00;46.60;;;;;;4977770;28;20533;-56
2022/06/07 04:57:19;;;;;;;1.80;1.70;;;21.00;46.60;;;;;;4977919;28;20225;-56
2022/06/07 04:59:45;;;;;;;1.30;1.20;;;21.00;46.70;;;;;;4980773;28;20303;-56
2022/06/07 05:02:10;;;;;;;1.30;1.20;;;21.00;46.60;;;;;;4986149;28;20224;-56
2022/06/07 05:04:36;;;;;;;1.33;1.23;;;21.00;46.70;;;;;;4983465;28;20267;-56
2022/06/07 05:07:02;;;;;;;2.50;1.20;;;21.00;46.70;;;;;;4982249;28;20585;-56
2022/06/07 05:09:29;;;;;;;1.37;1.27;;;21.00;46.70;;;;;;4981408;28;20772;-56
2022/06/07 05:11:54;;;;;;;1.40;1.30;;;21.00;46.70;;;;;;5001771;28;20884;-55
2022/06/07 05:14:21;;;;;;;1.50;1.40;;;21.00;46.80;;;;;;4985869;28;20488;-56
2022/06/07 05:16:48;;;;;;;1.40;1.30;;;21.00;46.70;;;;;;4982436;28;20587;-56
2022/06/07 05:19:14;;;;;;;1.67;1.57;;;21.00;46.80;;;;;;4983128;28;20462;-56
2022/06/07 05:21:40;;;;;;;1.30;1.20;;;21.00;46.70;;;;;;4980284;28;20452;-57
2022/06/07 05:24:07;;;;;;;1.30;1.20;;;21.00;46.80;;;;;;4980404;28;20526;-58
2022/06/07 05:26:46;;;;;;;1.27;1.17;;;21.00;46.80;;;;;;4962830;28;20466;-57
2022/06/07 05:29:32;;;;;;;1.50;1.40;;;21.00;46.80;;;;;;4964813;28;20472;-55
2022/06/07 05:31:58;;;;;;;1.20;1.10;;;21.00;47.60;;;;;;4963956;28;20462;-55
2022/06/07 05:34:23;;;;;;;1.50;1.40;;;21.00;46.80;;;;;;4964118;28;20447;-55
2022/06/07 05:36:49;;;;;;;1.47;1.30;;;21.00;46.90;;;;;;4963880;28;20260;-55
2022/06/07 05:39:23;;;;;;;1.37;1.27;;;21.00;46.90;;;;;;4963212;28;20226;-55
2022/06/07 05:41:50;;;;;;;1.40;1.30;;;21.00;46.80;;;;;;4961269;28;20290;-55
2022/06/07 05:44:16;;;;;;;1.37;1.27;;;21.00;46.90;;;;;;4960309;28;20944;-55
2022/06/07 05:46:42;;;;;;;1.50;1.40;;;21.00;46.90;;;;;;4964325;28;20506;-55
2022/06/07 05:49:12;;;;;;;1.50;1.40;;;21.00;46.90;;;;;;4963763;28;20272;-55
2022/06/07 05:51:38;;;;;;;1.30;1.20;;;21.00;46.90;;;;;;4958702;28;21666;-54
2022/06/07 05:54:05;;;;;;;1.60;1.50;;;21.00;46.90;;;;;;4963297;28;20495;-55
2022/06/07 05:56:30;;;;;;;1.40;1.30;;;21.00;46.90;;;;;;4959260;28;20241;-55
2022/06/07 05:58:57;;;;;;;1.40;1.30;;;21.00;46.90;;;;;;4960505;28;20469;-55
2022/06/07 06:01:22;;;;;;;1.53;1.43;;;21.00;46.90;;;;;;4962031;28;20303;-54
2022/06/07 06:03:48;;;;;;;1.20;1.10;;;21.00;46.90;;;;;;4964157;28;20454;-55
2022/06/07 06:06:14;;;;;;;1.60;1.50;;;21.00;46.90;;;;;;4961507;28;20218;-55
2022/06/07 06:11:27;;;;;;;1.40;1.30;;;21.00;46.80;;;;;;4961663;28;20227;-55
2022/06/07 06:13:53;;;;;;;1.67;1.30;;;21.00;46.80;;;;;;4961098;28;20546;-54
2022/06/07 06:16:20;;;;;;;1.67;1.57;;;21.00;46.50;;;;;;4958824;28;20535;-54
2022/06/07 06:18:51;;;;;;;1.40;1.30;;;21.00;46.60;;;;;;4979258;28;20317;-55
2022/06/07 06:21:19;;;;;;;1.30;1.20;;;21.00;46.50;;;;;;4961539;28;20456;-55
2022/06/07 06:23:45;;;;;;;1.40;1.30;;;21.00;46.50;;;;;;4967914;28;20620;-55
2022/06/07 06:26:14;;;;;;;1.20;1.10;;;21.00;46.60;;;;;;4941636;28;1085650;-54
2022/06/07 06:28:40;;;;;;;1.33;1.23;;;21.00;46.50;;;;;;4984524;28;20224;-54
2022/06/07 06:31:07;;;;;;;1.30;1.20;;;21.00;46.40;;;;;;4976752;28;20450;-55
2022/06/07 06:33:37;;;;;;;2.47;1.47;;;21.00;46.50;;;;;;4981407;28;20248;-55
2022/06/07 06:36:04;;;;;;;1.57;1.47;;;21.00;46.50;;;;;;4981779;28;20814;-55
2022/06/07 06:38:31;;;;;;;1.80;1.70;;;21.00;46.30;;;;;;4983128;28;20451;-54
2022/06/07 06:40:57;;;;;;;2.30;1.60;;;21.00;46.30;;;;;;4982185;28;20446;-55
2022/06/07 06:43:22;;;;;;;1.30;1.17;;;21.00;46.30;;;;;;4991291;28;20463;-54
2022/06/07 06:45:48;;;;;;;1.60;1.50;;;21.00;46.20;;;;;;4981543;28;20232;-55
2022/06/07 06:48:15;;;;;;;2.60;1.33;;;21.00;46.20;;;;;;4982799;28;20232;-55
2022/06/07 06:50:41;;;;;;;1.70;1.30;;;21.00;46.20;;;;;;4982555;28;20219;-54
2022/06/07 06:53:07;;;;;;;1.50;1.40;;;21.00;46.30;;;;;;4986588;28;20481;-55
2022/06/07 06:55:33;;;;;;;1.30;1.20;;;21.00;46.30;;;;;;4982260;28;20844;-55
2022/06/07 06:57:59;;;;;;;1.53;1.43;;;21.00;46.30;;;;;;4981526;28;20224;-54
2022/06/07 07:00:25;;;;;;;1.33;1.23;;;21.00;46.30;;;;;;4982238;28;20458;-54
2022/06/07 07:02:53;;;;;;;1.70;1.50;;;21.00;46.30;;;;;;4980766;28;20225;-54
2022/06/07 07:05:19;;;;;;;1.50;1.40;;;21.00;46.30;;;;;;4982435;28;20474;-54
2022/06/07 07:07:46;;;;;;;1.37;1.27;;;21.00;46.40;;;;;;4984224;28;21149;-54
2022/06/07 07:10:12;;;;;;;1.40;1.30;;;21.00;46.50;;;;;;4982783;28;20866;-54
2022/06/07 07:12:38;;;;;;;1.50;1.40;;;21.00;46.50;;;;;;4982275;28;20440;-54
2022/06/07 07:15:07;;;;;;;1.40;1.30;;;21.00;46.50;;;;;;4997139;28;20453;-54
2022/06/07 07:17:33;;;;;;;1.50;1.40;;;21.00;46.50;;;;;;4982525;28;20240;-54
2022/06/07 07:19:58;;;;;;;1.40;1.30;;;21.00;46.50;;;;;;4982868;28;20450;-54
2022/06/07 07:22:24;;;;;;;1.50;1.40;;;21.00;47.30;;;;;;4979632;28;20721;-53
2022/06/07 07:24:50;;;;;;;1.60;1.50;;;21.00;47.30;;;;;;4980430;28;20630;-54
2022/06/07 07:27:16;;;;;;;1.40;1.30;;;21.00;46.50;;;;;;4981524;28;20635;-54
2022/06/07 07:29:42;;;;;;;1.30;1.20;;;21.00;46.60;;;;;;4993886;28;20678;-54
2022/06/07 07:32:08;;;;;;;1.50;1.40;;;21.00;46.60;;;;;;4984168;28;20454;-54
2022/06/07 07:34:33;;;;;;;1.40;1.30;;;21.00;46.60;;;;;;4979168;28;20638;-54
2022/06/07 07:36:59;;;;;;;1.40;1.30;;;21.00;46.60;;;;;;4985053;28;20255;-54
2022/06/07 07:39:26;;;;;;;1.50;1.40;;;21.00;46.60;;;;;;4980797;28;20232;-54
2022/06/07 07:41:53;;;;;;;1.60;1.50;;;21.00;46.70;;;;;;4977136;28;20225;-54
2022/06/07 07:44:22;;;;;;;1.40;1.30;;;21.00;46.60;;;;;;4981960;28;20426;-54
2022/06/07 07:46:51;;;;;;;1.53;1.43;;;21.00;46.60;;;;;;4981665;28;20442;-54
2022/06/07 07:49:19;;;;;;;1.60;1.50;;;21.00;46.70;;;;;;4982905;28;20479;-54
2022/06/07 07:51:47;;;;;;;1.60;1.50;;;21.00;46.70;;;;;;4982183;28;20458;-54
2022/06/07 07:54:17;;;;;;;1.57;1.47;;;21.00;46.70;;;;;;4986435;28;20455;-54
2022/06/07 07:56:43;;;;;;;1.50;1.40;;;21.00;46.70;;;;;;4980379;28;20458;-54
2022/06/07 07:59:12;;;;;;;1.50;1.40;;;21.00;46.70;;;;;;4980308;28;20455;-54
2022/06/07 08:01:39;;;;;;;1.20;1.10;;;21.00;46.70;;;;;;4984953;28;20530;-54
2022/06/07 08:04:05;;;;;;;1.40;1.30;;;21.00;46.80;;;;;;4977152;28;20451;-54
2022/06/07 08:06:33;;;;;;;1.47;1.37;;;21.00;47.50;;;;;;4982483;28;20418;-54
2022/06/07 08:09:01;;;;;;;3.50;1.70;;;21.00;46.70;;;;;;4987116;28;20980;-55
2022/06/07 08:11:30;;;;;;;1.70;1.60;;;21.00;46.70;;;;;;4981006;28;21207;-54
2022/06/07 08:13:56;;;;;;;1.47;1.37;;;21.00;46.70;;;;;;4981080;28;20459;-54
2022/06/07 08:16:23;;;;;;;1.43;1.33;;;21.00;46.70;;;;;;4980623;28;20456;-55
2022/06/07 08:18:49;;;;;;;1.47;1.37;;;21.00;46.80;;;;;;4980973;28;20510;-54
2022/06/07 08:21:32;;;;;;;1.40;1.30;;;21.00;46.70;;;;;;4983686;28;20870;-54
2022/06/07 08:23:58;;;;;;;1.37;1.27;;;21.00;46.80;;;;;;4982773;28;20451;-56
2022/06/07 08:26:26;;;;;;;1.60;1.50;;;21.00;46.80;;;;;;4981483;28;20489;-54
2022/06/07 08:28:52;;;;;;;1.73;1.30;;;21.00;46.80;;;;;;4978524;28;20235;-54
2022/06/07 08:31:22;;;;;;;1.50;1.40;;;21.00;46.80;;;;;;4996740;28;20461;-54
2022/06/07 08:39:16;;;;;;;1.50;1.40;;;21.00;47.60;;;;;;4980486;28;20497;-54
2022/06/07 08:41:47;;;;;;;1.40;1.30;;;21.00;46.80;;;;;;4978691;28;20459;-54
2022/06/07 08:44:22;;;;;;;1.60;1.50;;;21.00;46.80;;;;;;4978241;28;20626;-54
2022/06/07 08:46:52;;;;;;;1.63;1.53;;;21.00;46.80;;;;;;4981346;28;20459;-53
2022/06/07 08:49:18;;;;;;;1.60;1.50;;;21.00;46.90;;;;;;4981151;28;20454;-54
2022/06/07 08:51:57;;;;;;;1.83;1.40;;;20.90;46.70;;;;;;4979494;28;20458;-54
2022/06/07 08:54:32;;;;;;;1.60;1.50;;;21.00;46.80;;;;;;4978252;28;20508;-54
2022/06/07 08:57:10;;;;;;;1.47;1.37;;;21.00;46.80;;;;;;4979308;28;20430;-54
2022/06/07 08:59:36;;;;;;;1.43;1.33;;;21.00;46.80;;;;;;4984046;28;20442;-54
2022/06/07 09:02:12;;;;;;;1.60;1.50;;;20.90;46.80;;;;;;4980230;28;20487;-54
2022/06/07 09:04:39;;;;;;;1.43;1.33;;;20.90;46.80;;;;;;4978903;28;20252;-54
2022/06/07 09:07:19;;;;;;;2.70;1.40;;;20.90;46.70;;;;;;4976376;28;20871;-54
2022/06/07 09:12:35;;;;;;;1.30;1.20;;;20.90;46.80;;;;;;4983132;28;20459;-54
2022/06/07 09:15:17;;;;;;;1.30;1.20;;;20.90;46.80;;;;;;4983040;28;20429;-54
2022/06/07 09:17:47;;;;;;;1.40;1.30;;;21.00;46.90;;;;;;4984777;28;20950;-54
2022/06/07 09:20:35;;;;;;;1.50;1.40;;;21.00;46.90;;;;;;4985075;28;20811;-55
2022/06/07 09:23:04;;;;;;;1.47;1.37;;;20.90;46.80;;;;;;4977471;28;20477;-54
2022/06/07 09:25:37;;;;;;;1.67;1.57;;;20.90;46.80;;;;;;4983934;28;20478;-54
2022/06/07 09:28:05;;;;;;;1.40;1.30;;;20.90;46.80;;;;;;4983570;28;20478;-54
2022/06/07 09:30:44;;;;;;;1.40;1.30;;;20.90;46.80;;;;;;4981351;28;20824;-54
2022/06/07 09:33:34;;;;;;;1.60;1.50;;;20.90;46.80;;;;;;4984178;28;20450;-54
2022/06/07 09:36:05;;;;;;;1.30;1.20;;;20.90;46.80;;;;;;4980657;28;20454;-54
2022/06/07 09:38:47;;;;;;;1.50;1.40;;;20.90;46.80;;;;;;4982308;28;20455;-55
2022/06/07 09:41:37;;;;;;;1.50;1.40;;;20.90;46.90;;;;;;4980816;28;20446;-55
2022/06/07 09:44:25;;;;;;;1.47;1.37;;;20.90;46.90;;;;;;4978848;28;20851;-55
2022/06/07 09:47:13;;;;;;;2.57;1.40;;;20.90;46.90;;;;;;4980311;28;20454;-55
2022/06/07 09:50:07;;;;;;;6.63;1.63;;;20.90;46.90;;;;;;4977567;28;20545;-58
2022/06/07 09:52:45;;;;;;;2.27;1.60;;;20.90;46.90;;;;;;4975873;28;20445;-55
2022/06/07 09:55:16;;;;;;;1.67;1.57;;;20.90;46.90;;;;;;4981157;28;20466;-55
2022/06/07 09:57:52;;;;;;;1.90;1.80;;;20.90;47.00;;;;;;4978916;28;20484;-54
2022/06/07 10:00:21;;;;;;;1.60;1.50;;;20.90;46.90;;;;;;4980184;28;20525;-55
2022/06/07 10:03:03;;;;;;;3.23;1.90;;;20.90;46.90;;;;;;4978182;28;20457;-55
2022/06/07 10:05:37;;;;;;;3.57;2.13;;;20.90;47.00;;;;;;4977681;28;20434;-55
2022/06/07 10:08:21;;;;;;;1.90;1.50;;;20.90;47.00;;;;;;4979078;28;20440;-54
2022/06/07 10:11:02;;;;;;;1.90;1.70;;;20.90;46.90;;;;;;4977076;28;20469;-55
2022/06/07 10:13:55;;;;;;;1.83;1.70;;;20.90;47.00;;;;;;4982500;28;20461;-55
2022/06/07 10:16:30;;;;;;;3.83;1.70;;;20.90;47.00;;;;;;4981429;28;20468;-54
2022/06/07 10:19:08;;;;;;;1.70;1.60;;;20.90;47.00;;;;;;4981410;28;20461;-55
2022/06/07 10:21:57;;;;;;;1.30;1.20;;;20.90;47.00;;;;;;4977002;28;20455;-55
2022/06/07 10:24:53;;;;;;;2.47;1.40;;;20.90;47.10;;;;;;4987726;28;20430;-55
2022/06/07 10:27:25;;;;;;;1.73;1.60;;;20.90;47.10;;;;;;4983473;28;20451;-54
2022/06/07 10:30:17;;;;;;;3.97;2.20;;;20.90;47.10;;;;;;4979678;28;20831;-54
2022/06/07 10:32:58;;;;;;;3.50;1.57;;;20.90;47.00;;;;;;4981084;28;20533;-55
2022/06/07 10:35:30;;;;;;;2.63;1.97;;;20.90;47.00;;;;;;4982856;28;20463;-55
2022/06/07 10:38:06;;;;;;;1.67;1.50;;;20.90;47.10;;;;;;4985267;28;20477;-55
2022/06/07 10:40:57;;;;;;;3.33;1.27;;;20.90;47.00;;;;;;4983517;28;20455;-55
2022/06/07 10:43:31;;;;;;;1.90;1.77;;;20.90;47.10;;;;;;4997445;28;20604;-55
2022/06/07 10:46:00;;;;;;;1.30;1.20;;;20.90;47.20;;;;;;4987624;28;20454;-55
2022/06/07 10:48:39;;;;;;;2.00;1.50;;;20.90;47.10;;;;;;4984664;28;20467;-54
2022/06/07 10:54:15;;;;;;;2.23;1.47;;;20.90;48.30;;;;;;4984231;28;20458;-54
2022/06/07 10:56:48;;;;;;;1.50;1.30;;;20.90;49.80;;;;;;4982610;28;20442;-55
2022/06/07 10:59:26;;;;;;;1.57;1.47;;;20.90;51.70;;;;;;4986569;28;20458;-55
2022/06/07 11:02:03;;;;;;;2.30;1.50;;;20.90;52.50;;;;;;4985354;28;20453;-55
2022/06/07 11:10:54;;;;;;;1.87;1.30;;;20.90;54.70;;;;;;4973836;28;20453;-55
2022/06/07 11:13:38;;;;;;;1.50;1.40;;;20.90;54.60;;;;;;4981177;28;20820;-55
2022/06/07 11:16:14;;;;;;;1.47;1.37;;;20.90;53.80;;;;;;4983484;28;20290;-54
2022/06/07 11:18:41;;;;;;;1.40;1.30;;;20.90;54.40;;;;;;4992418;28;20482;-54
2022/06/07 11:21:08;;;;;;;2.33;1.27;;;20.90;54.00;;;;;;4983538;28;20454;-54
2022/06/07 11:23:58;;;;;;;1.60;1.50;;;20.90;53.60;;;;;;4980317;28;20443;-54
2022/06/07 11:26:24;;;;;;;2.07;1.50;;;20.90;53.50;;;;;;4986139;28;20498;-55
2022/06/07 11:28:53;;;;;;;1.50;1.40;;;20.90;53.40;;;;;;4981349;28;21018;-54
2022/06/07 11:31:35;;;;;;;1.50;1.40;;;20.90;53.10;;;;;;4979875;28;20446;-54
2022/06/07 11:34:22;;;;;;;1.50;1.40;;;20.90;53.10;;;;;;4978351;28;20443;-55
2022/06/07 11:36:49;;;;;;;2.83;1.90;;;20.90;52.20;;;;;;4980205;28;20877;-55
2022/06/07 11:39:40;;;;;;;1.73;1.40;;;20.90;51.70;;;;;;4981118;28;20940;-54
2022/06/07 11:42:14;;;;;;;1.30;1.20;;;20.90;52.30;;;;;;4977777;28;20450;-55
2022/06/07 11:44:45;;;;;;;1.60;1.50;;;20.90;52.40;;;;;;4982867;28;20727;-55
2022/06/07 11:47:11;;;;;;;1.43;1.33;;;20.90;52.30;;;;;;4983645;28;20461;-55
2022/06/07 11:49:46;;;;;;;2.17;1.50;;;20.90;52.50;;;;;;4979979;28;20459;-55
2022/06/07 11:52:11;;;;;;;1.33;1.23;;;20.90;51.90;;;;;;4984519;28;20220;-55
2022/06/07 11:54:46;;;;;;;2.33;1.60;;;20.90;52.00;;;;;;4984990;28;20454;-55
2022/06/07 11:57:26;;;;;;;2.80;1.50;;;20.90;51.70;;;;;;4981267;28;20212;-55
2022/06/07 11:59:54;;;;;;;1.87;1.77;;;20.90;51.20;;;;;;4981730;28;20531;-55
2022/06/07 12:02:29;;;;;;;1.80;1.70;;;20.90;51.70;;;;;;4982174;28;20459;-55
2022/06/07 12:05:19;;;;;;;1.40;1.30;;;20.90;51.00;;;;;;4982394;28;20539;-55
2022/06/07 12:07:51;;;;;;;1.53;1.43;;;20.90;51.50;;;;;;4984990;28;20474;-55
2022/06/07 12:10:22;;;;;;;1.50;1.40;;;20.90;51.40;;;;;;4982991;28;20454;-54
2022/06/07 12:12:52;;;;;;;1.50;1.40;;;20.90;51.10;;;;;;4982467;28;20460;-55
2022/06/07 12:15:24;;;;;;;4.60;1.40;;;20.90;51.70;;;;;;4981569;28;20789;-55
2022/06/07 12:18:06;;;;;;;1.43;1.33;;;20.90;51.10;;;;;;4979009;28;20455;-54
2022/06/07 12:20:35;;;;;;;1.90;1.80;;;20.90;51.00;;;;;;4982632;28;20491;-54
2022/06/07 12:23:22;;;;;;;1.40;1.30;;;20.90;51.40;;;;;;4980892;28;20455;-55
2022/06/07 12:26:02;;;;;;;1.73;1.50;;;20.90;51.50;;;;;;4979633;28;20549;-55
2022/06/07 12:28:30;;;;;;;1.60;1.50;;;20.90;51.70;;;;;;4983265;28;20462;-55
2022/06/07 12:30:56;;;;;;;1.43;1.33;;;20.90;51.50;;;;;;4978268;28;20430;-54
2022/06/07 12:33:32;;;;;;;1.30;1.20;;;20.90;51.70;;;;;;4979778;28;20864;-55
2022/06/07 12:35:59;;;;;;;1.60;1.50;;;20.90;51.70;;;;;;4980898;28;21224;-55
2022/06/07 12:38:26;;;;;;;1.77;1.50;;;20.90;51.70;;;;;;4982218;28;20491;-55
2022/06/07 12:40:55;;;;;;;1.50;1.40;;;20.90;52.80;;;;;;4981730;28;20461;-54
2022/06/07 12:43:27;;;;;;;1.50;1.40;;;20.90;52.10;;;;;;4981404;28;20446;-55
2022/06/07 12:46:04;;;;;;;1.50;1.40;;;20.90;52.00;;;;;;4982717;28;20520;-55
2022/06/07 12:48:40;;;;;;;2.00;1.90;;;20.90;52.00;;;;;;4979196;28;20518;-55
2022/06/07 12:51:22;;;;;;;1.40;1.30;;;20.90;51.60;;;;;;4979986;28;20466;-55
2022/06/07 12:53:49;;;;;;;1.73;1.40;;;20.90;51.90;;;;;;4978990;28;20461;-55
2022/06/07 12:56:17;;;;;;;1.50;1.40;;;20.90;51.70;;;;;;4981164;28;21081;-55
2022/06/07 12:58:49;;;;;;;1.30;1.20;;;20.90;51.80;;;;;;4977637;28;20451;-55
2022/06/07 13:01:30;;;;;;;1.67;1.57;;;20.90;51.30;;;;;;4979764;28;20458;-55
2022/06/07 13:03:59;;;;;;;1.27;1.17;;;20.90;51.20;;;;;;4979433;28;20538;-55
2022/06/07 13:06:25;;;;;;;1.77;1.33;;;20.90;51.30;;;;;;4981760;28;20433;-54
2022/06/07 13:09:04;;;;;;;1.50;1.40;;;20.90;51.00;;;;;;4978468;28;20976;-55
2022/06/07 13:11:34;;;;;;;1.40;1.30;;;20.90;50.90;;;;;;4989029;28;20432;-56
2022/06/07 13:14:00;;;;;;;1.50;1.40;;;20.90;51.00;;;;;;4981461;28;20459;-55
2022/06/07 13:16:34;;;;;;;1.60;1.50;;;20.90;51.30;;;;;;4979427;28;20463;-55
2022/06/07 13:19:21;;;;;;;1.60;1.50;;;20.90;50.90;;;;;;4987613;28;20454;-55
2022/06/07 13:22:14;;;;;;;1.40;1.30;;;20.90;51.30;;;;;;4981518;28;21007;-55
2022/06/07 13:24:53;;;;;;;1.60;1.50;;;20.90;51.00;;;;;;4982997;28;20785;-55
2022/06/07 13:27:43;;;;;;;1.50;1.40;;;20.90;50.80;;;;;;4985714;28;20438;-55
2022/06/07 13:30:31;;;;;;;1.50;1.40;;;20.90;51.20;;;;;;4981411;28;20469;-55